Time;durP1;ratioP1;P1;durP2;ratioP2;P2;SDS_P1;SDS_P2;PMS_P1;PMS_P2;Temp;Humidity;BMP_temperature;BMP_pressure;BME280_temperature;BME280_humidity;BME280_pressure;Samples;Min_cycle;Max_cycle;Signal;HPM_P1;HPM_P2
2023/05/01 00:02:10;;;;;;;;;12.00;11.00;21.90;38.10;;;;;;109952;1255;49696;-62
2023/05/01 00:04:37;;;;;;;;;11.00;10.00;21.90;38.20;;;;;;109986;1258;46876;-63
2023/05/01 00:07:04;;;;;;;;;12.00;12.00;21.80;38.10;;;;;;109931;1253;56913;-63
2023/05/01 00:09:32;;;;;;;;;12.00;9.00;21.80;38.10;;;;;;109954;1252;54897;-63
2023/05/01 00:11:58;;;;;;;;;13.00;11.00;21.80;38.10;;;;;;109929;1256;49166;-63
2023/05/01 00:14:25;;;;;;;;;10.00;9.00;21.80;37.70;;;;;;109936;1257;50357;-63
2023/05/01 00:16:52;;;;;;;;;10.67;9.67;21.80;38.10;;;;;;109914;1252;46839;-63
2023/05/01 00:19:19;;;;;;;;;11.00;9.00;21.80;38.10;;;;;;109931;1257;57016;-63
2023/05/01 00:21:47;;;;;;;;;10.00;9.00;21.80;38.10;;;;;;109892;1257;54352;-64
2023/05/01 00:24:15;;;;;;;;;12.50;11.25;21.80;38.10;;;;;;109946;1252;50365;-64
2023/05/01 00:26:43;;;;;;;;;10.00;9.00;21.70;38.10;;;;;;109917;1257;49687;-63
2023/05/01 00:29:09;;;;;;;;;10.00;9.00;21.80;38.20;;;;;;109924;1252;46754;-63
2023/05/01 00:31:36;;;;;;;;;14.50;11.00;21.70;38.10;;;;;;109907;1252;56513;-62
2023/05/01 00:34:04;;;;;;;;;10.00;9.00;21.70;38.10;;;;;;109964;1253;53557;-64
2023/05/01 00:36:31;;;;;;;;;10.00;9.00;21.70;38.10;;;;;;109962;1256;49423;-63
2023/05/01 00:38:57;;;;;;;;;10.67;9.67;21.70;38.10;;;;;;109880;1253;49222;-64
2023/05/01 00:41:25;;;;;;;;;12.00;11.00;21.70;38.10;;;;;;109939;1252;46146;-63
2023/05/01 00:43:52;;;;;;;;;12.67;10.00;21.70;38.30;;;;;;109918;1256;57192;-63
2023/05/01 00:46:20;;;;;;;;;12.00;10.00;21.70;38.40;;;;;;109982;1252;54034;-63
2023/05/01 00:48:47;;;;;;;;;10.00;9.00;21.70;38.20;;;;;;109915;1257;49426;-62
2023/05/01 00:51:14;;;;;;;;;13.50;11.50;21.70;38.10;;;;;;109961;1252;50356;-63
2023/05/01 00:53:42;;;;;;;;;11.00;10.00;21.70;38.10;;;;;;109991;1257;46403;-63
2023/05/01 00:56:10;;;;;;;;;12.00;9.00;21.70;38.10;;;;;;109966;1252;57058;-63
2023/05/01 00:58:37;;;;;;;;;12.00;11.00;21.60;38.10;;;;;;109961;1253;54363;-62
2023/05/01 01:01:04;;;;;;;;;11.75;10.25;21.70;38.20;;;;;;109904;1252;50476;-64
2023/05/01 01:03:31;;;;;;;;;12.00;11.00;21.60;38.10;;;;;;109985;1253;50164;-63
2023/05/01 01:06:04;;;;;;;;;12.00;11.00;21.70;38.20;;;;;;109929;1254;46553;-63
2023/05/01 01:08:45;;;;;;;;;11.00;10.00;21.60;38.10;;;;;;109883;1257;56546;-63
2023/05/01 01:11:41;;;;;;;;;11.00;9.00;21.60;38.30;;;;;;109869;1257;54513;-62
2023/05/01 01:14:15;;;;;;;;;11.67;10.00;21.60;38.10;;;;;;109553;1262;49204;-63
2023/05/01 01:16:54;;;;;;;;;12.00;11.00;21.60;38.10;;;;;;109886;1257;49085;-64
2023/05/01 01:19:43;;;;;;;;;11.00;10.00;21.60;38.10;;;;;;109938;1252;47006;-63
2023/05/01 01:22:13;;;;;;;;;11.50;10.50;21.60;38.00;;;;;;109895;1255;56630;-64
2023/05/01 01:24:43;;;;;;;;;10.50;9.50;21.60;38.10;;;;;;109959;1252;54416;-63
2023/05/01 01:27:16;;;;;;;;;10.00;9.00;21.60;38.10;;;;;;109964;1252;50149;-64
2023/05/01 01:29:55;;;;;;;;;10.67;9.67;21.60;38.60;;;;;;109946;1257;49471;-63
2023/05/01 01:33:00;;;;;;;;;11.00;10.00;21.60;38.30;;;;;;109950;1257;46805;-63
2023/05/01 01:35:30;;;;;;;;;12.00;10.00;21.50;38.10;;;;;;109980;1256;57002;-64
2023/05/01 01:38:03;;;;;;;;;10.00;9.00;21.60;38.20;;;;;;109917;1252;53336;-64
2023/05/01 01:40:43;;;;;;;;;12.00;11.00;21.50;38.00;;;;;;109986;1252;49145;-63
2023/05/01 01:43:12;;;;;;;;;11.67;9.33;21.50;38.20;;;;;;109968;1252;49876;-62
2023/05/01 01:45:42;;;;;;;;;12.00;10.00;21.50;38.10;;;;;;110060;1256;46543;-63
2023/05/01 01:48:14;;;;;;;;;10.00;9.00;21.50;38.10;;;;;;109953;1257;56155;-63
2023/05/01 01:50:42;;;;;;;;;11.00;10.00;21.50;38.20;;;;;;109943;1254;54009;-63
2023/05/01 01:53:12;;;;;;;;;10.00;8.50;21.50;38.00;;;;;;109894;1255;50195;-63
2023/05/01 01:55:39;;;;;;;;;11.00;10.00;21.50;38.00;;;;;;110011;1252;49485;-62
2023/05/01 01:58:08;;;;;;;;;13.00;12.00;21.50;38.30;;;;;;109997;1252;46355;-63
2023/05/01 02:00:35;;;;;;;;;11.00;9.50;21.50;38.20;;;;;;109954;1257;57923;-63
2023/05/01 02:03:02;;;;;;;;;10.00;9.00;21.50;38.60;;;;;;109884;1257;53937;-64
2023/05/01 02:05:30;;;;;;;;;11.00;10.00;21.50;38.00;;;;;;109943;1252;50038;-64
2023/05/01 02:07:58;;;;;;;;;11.00;10.00;21.40;38.00;;;;;;109898;1258;49279;-63
2023/05/01 02:10:26;;;;;;;;;11.33;10.00;21.50;38.30;;;;;;109925;1256;46190;-63
2023/05/01 02:12:55;;;;;;;;;11.00;10.00;21.40;38.00;;;;;;109984;1252;56615;-63
2023/05/01 02:15:23;;;;;;;;;11.33;10.00;21.40;38.10;;;;;;109921;1255;54916;-63
2023/05/01 02:17:51;;;;;;;;;15.00;9.00;21.40;38.10;;;;;;109963;1257;49438;-63
2023/05/01 02:20:20;;;;;;;;;12.50;10.50;21.40;38.10;;;;;;109926;1254;49762;-63
2023/05/01 02:22:48;;;;;;;;;12.00;10.00;21.40;38.10;;;;;;110010;1252;46608;-64
2023/05/01 02:25:15;;;;;;;;;11.50;10.00;21.40;38.10;;;;;;109959;1257;57653;-63
2023/05/01 02:28:02;;;;;;;;;11.00;10.00;21.40;38.10;;;;;;109940;1255;54173;-64
2023/05/01 02:30:30;;;;;;;;;11.50;10.00;21.40;38.00;;;;;;109888;1256;49630;-63
2023/05/01 02:32:57;;;;;;;;;10.00;8.00;21.30;38.00;;;;;;109966;1257;49389;-64
2023/05/01 02:35:24;;;;;;;;;11.00;10.00;21.40;38.10;;;;;;109916;1257;46880;-63
2023/05/01 02:37:51;;;;;;;;;11.00;9.00;21.30;38.00;;;;;;109960;1257;57525;-64
2023/05/01 02:40:18;;;;;;;;;13.33;12.33;21.30;38.00;;;;;;109955;1255;53753;-62
2023/05/01 02:42:47;;;;;;;;;11.00;9.33;21.30;38.20;;;;;;109849;1257;49043;-63
2023/05/01 02:45:23;;;;;;;;;;;21.30;38.10;;;;;;109876;1254;49699;-63
2023/05/01 02:47:53;;;;;;;;;10.50;9.00;21.30;38.10;;;;;;109924;1253;45961;-63
2023/05/01 02:50:21;;;;;;;;;12.00;10.00;21.30;38.10;;;;;;109900;1257;56354;-63
2023/05/01 02:52:48;;;;;;;;;11.00;10.00;21.30;38.10;;;;;;109968;1256;54083;-63
2023/05/01 02:55:16;;;;;;;;;9.00;8.00;21.30;38.10;;;;;;109930;1254;49623;-63
2023/05/01 02:57:43;;;;;;;;;12.00;11.00;21.30;38.10;;;;;;109901;1252;50291;-64
2023/05/01 03:00:12;;;;;;;;;12.00;10.00;21.30;38.10;;;;;;109900;1255;46430;-64
2023/05/01 03:02:39;;;;;;;;;12.00;10.00;21.30;37.60;;;;;;109952;1257;56347;-62
2023/05/01 03:05:07;;;;;;;;;11.00;10.00;21.30;38.10;;;;;;109967;1252;54482;-63
2023/05/01 03:07:34;;;;;;;;;13.00;10.00;21.30;38.10;;;;;;109959;1252;49644;-63
2023/05/01 03:10:05;;;;;;;;;11.00;10.00;21.20;38.00;;;;;;109977;1257;49358;-64
2023/05/01 03:12:33;;;;;;;;;11.00;9.00;21.30;38.10;;;;;;109970;1257;46011;-62
2023/05/01 03:15:00;;;;;;;;;11.00;9.00;21.20;38.00;;;;;;109932;1257;56521;-62
2023/05/01 03:17:26;;;;;;;;;14.00;11.00;21.20;38.00;;;;;;109969;1258;53393;-63
2023/05/01 03:19:54;;;;;;;;;12.00;10.50;21.20;38.00;;;;;;110054;1252;49781;-63
2023/05/01 03:22:21;;;;;;;;;10.67;9.67;21.20;38.20;;;;;;109911;1252;50203;-63
2023/05/01 03:24:49;;;;;;;;;14.67;10.67;21.20;38.10;;;;;;109920;1253;46392;-63
2023/05/01 03:27:16;;;;;;;;;12.00;11.00;21.20;38.10;;;;;;109951;1252;56893;-64
2023/05/01 03:29:43;;;;;;;;;11.33;9.67;21.20;38.10;;;;;;109942;1252;53661;-63
2023/05/01 03:32:10;;;;;;;;;11.00;10.00;21.20;38.10;;;;;;109997;1252;50360;-63
2023/05/01 03:34:37;;;;;;;;;11.00;9.00;21.20;38.10;;;;;;109901;1252;49529;-64
2023/05/01 03:37:04;;;;;;;;;12.00;10.00;21.10;38.10;;;;;;109918;1252;46926;-63
2023/05/01 03:39:31;;;;;;;;;11.00;9.75;21.10;38.10;;;;;;109947;1257;56633;-63
2023/05/01 03:41:58;;;;;;;;;12.00;11.00;21.10;37.60;;;;;;109923;1252;54002;-63
2023/05/01 03:44:25;;;;;;;;;11.00;9.00;21.10;38.30;;;;;;109915;1257;49351;-63
2023/05/01 03:46:52;;;;;;;;;12.50;11.00;21.10;38.10;;;;;;109902;1257;50596;-63
2023/05/01 03:49:19;;;;;;;;;13.00;12.00;21.10;38.10;;;;;;109936;1257;46554;-62
2023/05/01 03:51:46;;;;;;;;;12.00;9.00;21.10;38.10;;;;;;109892;1254;56805;-65
2023/05/01 03:54:13;;;;;;;;;12.00;10.00;21.10;38.40;;;;;;109970;1257;54411;-63
2023/05/01 03:56:40;;;;;;;;;11.67;9.67;21.10;38.10;;;;;;109959;1252;49561;-63
2023/05/01 03:59:07;;;;;;;;;11.00;10.00;21.10;38.10;;;;;;109945;1258;49728;-63
2023/05/01 04:01:34;;;;;;;;;10.75;9.75;21.10;38.10;;;;;;109894;1256;47668;-64
2023/05/01 04:04:01;;;;;;;;;10.50;9.00;21.10;38.10;;;;;;109900;1257;57110;-63
2023/05/01 04:06:28;;;;;;;;;10.00;9.00;21.10;38.10;;;;;;109968;1252;54920;-63
2023/05/01 04:08:55;;;;;;;;;10.50;9.50;21.10;38.10;;;;;;109918;1254;49694;-63
2023/05/01 04:11:22;;;;;;;;;11.00;10.00;21.10;38.30;;;;;;110000;1252;49962;-63
2023/05/01 04:13:49;;;;;;;;;12.00;11.00;21.00;38.00;;;;;;110012;1256;46399;-62
2023/05/01 04:16:16;;;;;;;;;11.00;9.50;21.10;38.10;;;;;;109961;1257;56312;-64
2023/05/01 04:18:44;;;;;;;;;13.00;12.00;21.10;38.20;;;;;;110038;1256;54143;-63
2023/05/01 04:21:12;;;;;;;;;13.00;10.00;21.00;38.00;;;;;;109909;1256;49685;-63
2023/05/01 04:23:39;;;;;;;;;12.00;10.00;21.00;38.50;;;;;;109945;1252;50491;-63
2023/05/01 04:26:06;;;;;;;;;10.00;9.00;21.00;38.00;;;;;;109993;1253;47103;-64
2023/05/01 04:28:33;;;;;;;;;10.00;9.00;21.10;38.60;;;;;;109928;1252;57214;-63
2023/05/01 04:31:00;;;;;;;;;12.50;11.00;21.10;38.10;;;;;;109970;1257;53822;-63
2023/05/01 04:33:27;;;;;;;;;12.00;10.50;21.00;38.00;;;;;;109905;1252;50688;-63
2023/05/01 04:35:54;;;;;;;;;10.50;10.00;21.10;38.30;;;;;;110017;1255;49500;-63
2023/05/01 04:38:21;;;;;;;;;12.00;11.00;21.00;38.00;;;;;;109947;1252;47651;-63
2023/05/01 04:40:48;;;;;;;;;13.00;10.00;21.00;38.00;;;;;;109921;1253;56199;-64
2023/05/01 04:43:15;;;;;;;;;10.00;9.00;21.00;38.10;;;;;;109924;1256;53828;-64
2023/05/01 04:45:42;;;;;;;;;11.00;10.00;21.00;38.10;;;;;;109872;1252;49838;-63
2023/05/01 04:48:09;;;;;;;;;10.00;9.50;21.00;38.10;;;;;;109901;1254;49135;-63
2023/05/01 04:50:36;;;;;;;;;11.50;9.50;21.00;38.00;;;;;;109068;1252;1168952;-64
2023/05/01 04:53:03;;;;;;;;;11.00;10.00;21.00;38.00;;;;;;109935;1252;57936;-63
2023/05/01 04:55:30;;;;;;;;;10.75;9.75;21.00;38.10;;;;;;109960;1257;54173;-64
2023/05/01 04:57:57;;;;;;;;;11.50;11.00;21.00;38.10;;;;;;109952;1255;49721;-63
2023/05/01 05:00:24;;;;;;;;;12.00;11.00;21.00;38.10;;;;;;110028;1252;49350;-63
2023/05/01 05:02:51;;;;;;;;;11.00;9.00;21.00;38.30;;;;;;109894;1252;46797;-63
2023/05/01 05:05:18;;;;;;;;;12.00;11.00;21.00;38.10;;;;;;109983;1252;56341;-63
2023/05/01 05:07:45;;;;;;;;;15.00;10.00;21.00;38.40;;;;;;110020;1255;53681;-63
2023/05/01 05:10:13;;;;;;;;;10.00;9.00;21.00;37.60;;;;;;110037;1255;49723;-63
2023/05/01 05:12:40;;;;;;;;;11.00;10.00;21.00;38.10;;;;;;109978;1256;49756;-65
2023/05/01 05:15:07;;;;;;;;;12.00;11.00;21.00;38.10;;;;;;110110;1252;46477;-63
2023/05/01 05:17:34;;;;;;;;;12.50;11.00;21.00;38.70;;;;;;109970;1255;56406;-64
2023/05/01 05:20:01;;;;;;;;;11.00;10.00;21.00;38.10;;;;;;109984;1252;53665;-63
2023/05/01 05:22:28;;;;;;;;;11.00;9.00;21.00;38.10;;;;;;109897;1256;50267;-64
2023/05/01 05:24:58;;;;;;;;;13.00;11.00;21.00;38.10;;;;;;109998;1252;49479;-64
2023/05/01 05:27:25;;;;;;;;;10.00;9.00;21.00;38.10;;;;;;109974;1254;47470;-62
2023/05/01 05:29:52;;;;;;;;;10.00;9.00;21.00;38.00;;;;;;109978;1256;57461;-62
2023/05/01 05:32:19;;;;;;;;;12.00;10.00;21.10;38.10;;;;;;109969;1257;54220;-63
2023/05/01 05:34:46;;;;;;;;;11.00;10.00;21.00;38.00;;;;;;109974;1252;49093;-64
2023/05/01 05:37:14;;;;;;;;;10.00;9.00;21.00;38.00;;;;;;109985;1254;49433;-68
2023/05/01 05:39:41;;;;;;;;;11.00;10.00;21.10;38.20;;;;;;110015;1252;46240;-65
2023/05/01 05:42:08;;;;;;;;;10.50;9.00;21.10;38.10;;;;;;109967;1254;56868;-64
2023/05/01 05:44:35;;;;;;;;;11.00;10.00;21.00;38.00;;;;;;110029;1256;53885;-63
2023/05/01 05:47:02;;;;;;;;;12.00;11.00;21.00;38.30;;;;;;109975;1256;49299;-63
2023/05/01 05:49:29;;;;;;;;;13.00;12.00;21.10;38.20;;;;;;109960;1257;49568;-63
2023/05/01 05:51:56;;;;;;;;;11.75;9.75;21.10;38.40;;;;;;110008;1252;46508;-62
2023/05/01 05:54:23;;;;;;;;;13.00;12.00;21.10;38.20;;;;;;110051;1256;56656;-63
2023/05/01 05:56:50;;;;;;;;;12.00;10.00;21.10;38.30;;;;;;110007;1256;54873;-64
2023/05/01 05:59:17;;;;;;;;;11.00;10.00;21.10;38.20;;;;;;109898;1255;49685;-62
2023/05/01 06:01:44;;;;;;;;;12.00;11.00;21.10;38.30;;;;;;109986;1252;49399;-64
2023/05/01 06:04:13;;;;;;;;;12.50;10.00;21.10;38.30;;;;;;109943;1252;46257;-63
2023/05/01 06:06:40;;;;;;;;;10.00;9.00;21.10;38.30;;;;;;110012;1252;56933;-67
2023/05/01 06:09:07;;;;;;;;;11.67;10.67;21.10;38.30;;;;;;110019;1252;54214;-64
2023/05/01 06:11:35;;;;;;;;;10.50;9.00;21.10;38.30;;;;;;109973;1256;49673;-64
2023/05/01 06:14:02;;;;;;;;;12.00;10.50;21.10;38.40;;;;;;109920;1252;49095;-64
2023/05/01 06:16:29;;;;;;;;;13.00;11.00;21.10;38.20;;;;;;109952;1257;46437;-63
2023/05/01 06:18:56;;;;;;;;;12.00;11.00;21.10;38.20;;;;;;110004;1254;56957;-63
2023/05/01 06:21:23;;;;;;;;;10.50;9.50;21.20;38.30;;;;;;109963;1256;54384;-63
2023/05/01 06:23:51;;;;;;;;;12.75;12.00;21.20;38.30;;;;;;110003;1252;49546;-63
2023/05/01 06:26:18;;;;;;;;;13.00;12.00;21.20;38.30;;;;;;109999;1257;49470;-64
2023/05/01 06:28:45;;;;;;;;;13.00;11.00;21.20;38.50;;;;;;109966;1254;46986;-63
2023/05/01 06:31:12;;;;;;;;;12.00;9.00;21.30;38.30;;;;;;109993;1254;56638;-63
2023/05/01 06:33:39;;;;;;;;;10.50;9.50;21.30;38.30;;;;;;109912;1256;53542;-64
2023/05/01 06:36:06;;;;;;;;;10.00;9.00;21.30;38.50;;;;;;110024;1252;50583;-64
2023/05/01 06:38:33;;;;;;;;;10.50;9.50;21.30;38.20;;;;;;109962;1256;49686;-62
2023/05/01 06:41:00;;;;;;;;;10.50;9.50;21.40;38.50;;;;;;109928;1252;46177;-63
2023/05/01 06:43:29;;;;;;;;;12.00;9.67;21.40;38.50;;;;;;109928;1252;56770;-63
2023/05/01 06:45:56;;;;;;;;;12.00;11.00;21.40;38.20;;;;;;109984;1252;54229;-63
2023/05/01 06:48:23;;;;;;;;;11.00;10.00;21.50;38.30;;;;;;109966;1256;50409;-63
2023/05/01 06:50:50;;;;;;;;;11.00;10.00;21.50;38.20;;;;;;109990;1256;49168;-63
2023/05/01 06:53:17;;;;;;;;;11.00;10.00;21.60;38.30;;;;;;110026;1256;46287;-64
2023/05/01 06:55:44;;;;;;;;;10.00;9.00;21.60;38.30;;;;;;109993;1258;57442;-63
2023/05/01 06:58:11;;;;;;;;;12.00;10.00;21.60;38.30;;;;;;109976;1252;53946;-63
2023/05/01 07:00:38;;;;;;;;;10.00;9.00;21.70;38.30;;;;;;110003;1257;49796;-65
2023/05/01 07:03:05;;;;;;;;;9.00;8.00;21.70;38.30;;;;;;109975;1252;49834;-63
2023/05/01 07:05:32;;;;;;;;;11.00;10.00;21.80;38.30;;;;;;110025;1257;47561;-64
2023/05/01 07:08:00;;;;;;;;;12.67;11.00;21.80;38.30;;;;;;109975;1256;56237;-63
2023/05/01 07:10:28;;;;;;;;;13.50;10.00;21.80;38.20;;;;;;109970;1253;53667;-64
2023/05/01 07:12:54;;;;;;;;;11.00;9.00;21.90;38.30;;;;;;109931;1252;49903;-62
2023/05/01 07:15:22;;;;;;;;;10.00;9.00;21.90;38.30;;;;;;109913;1254;49591;-63
2023/05/01 07:17:49;;;;;;;;;11.50;10.50;22.00;38.30;;;;;;109946;1254;47549;-64
2023/05/01 07:20:16;;;;;;;;;13.00;12.00;22.00;38.20;;;;;;109879;1255;56999;-64
2023/05/01 07:22:44;;;;;;;;;10.00;9.00;22.10;38.30;;;;;;109943;1252;54093;-63
2023/05/01 07:25:11;;;;;;;;;11.00;11.00;22.10;38.20;;;;;;110067;1252;49482;-63
2023/05/01 07:27:38;;;;;;;;;12.00;11.00;22.10;38.40;;;;;;109988;1257;49271;-63
2023/05/01 07:30:05;;;;;;;;;10.50;9.50;22.20;38.20;;;;;;109881;1257;46120;-65
2023/05/01 07:32:32;;;;;;;;;10.50;9.50;22.30;38.30;;;;;;109990;1257;56570;-64
2023/05/01 07:35:00;;;;;;;;;11.50;9.50;22.30;38.50;;;;;;109989;1257;53864;-64
2023/05/01 07:37:27;;;;;;;;;11.00;10.00;22.30;38.40;;;;;;109941;1252;49317;-63
2023/05/01 07:39:55;;;;;;;;;10.50;9.50;22.40;38.40;;;;;;109963;1257;49247;-63
2023/05/01 07:42:23;;;;;;;;;11.00;9.00;22.40;38.20;;;;;;110030;1257;46394;-64
2023/05/01 07:44:50;;;;;;;;;11.00;10.00;22.50;38.20;;;;;;110005;1252;56936;-64
2023/05/01 07:47:17;;;;;;;;;11.50;10.50;22.50;38.20;;;;;;110008;1254;55302;-65
2023/05/01 07:49:44;;;;;;;;;12.00;9.00;22.60;38.20;;;;;;109988;1257;49824;-62
2023/05/01 07:52:11;;;;;;;;;11.00;9.00;22.70;38.30;;;;;;110050;1257;49590;-62
2023/05/01 07:54:38;;;;;;;;;11.00;10.00;22.70;38.20;;;;;;110024;1252;47570;-63
2023/05/01 07:57:05;;;;;;;;;11.00;10.00;22.70;38.20;;;;;;109970;1252;56219;-63
2023/05/01 07:59:32;;;;;;;;;11.50;10.50;22.80;38.20;;;;;;110009;1252;53836;-63
2023/05/01 08:01:59;;;;;;;;;12.00;11.00;22.90;38.30;;;;;;109998;1252;51202;-63
2023/05/01 08:04:26;;;;;;;;;11.00;10.00;22.90;38.20;;;;;;109986;1252;49053;-63
2023/05/01 08:06:53;;;;;;;;;12.00;10.00;22.90;38.10;;;;;;110027;1256;46542;-63
2023/05/01 08:09:20;;;;;;;;;10.00;9.00;23.00;38.20;;;;;;110009;1252;56434;-63
2023/05/01 08:11:47;;;;;;;;;11.00;9.50;23.10;38.20;;;;;;109955;1252;53633;-63
2023/05/01 08:14:16;;;;;;;;;9.50;8.50;23.10;38.10;;;;;;110019;1251;50283;-63
2023/05/01 08:16:43;;;;;;;;;11.00;10.00;23.10;38.20;;;;;;109961;1252;48688;-64
2023/05/01 08:19:10;;;;;;;;;11.00;9.00;23.20;38.20;;;;;;110061;1257;47002;-64
2023/05/01 08:21:37;;;;;;;;;12.50;11.00;23.30;38.20;;;;;;109993;1252;56858;-63
2023/05/01 08:24:08;;;;;;;;;11.50;10.00;23.30;38.20;;;;;;109953;1255;53384;-63
2023/05/01 08:26:35;;;;;;;;;10.50;9.00;23.30;38.10;;;;;;109997;1255;49474;-63
2023/05/01 08:29:02;;;;;;;;;13.00;11.00;23.40;38.10;;;;;;109974;1254;50104;-62
2023/05/01 08:31:29;;;;;;;;;10.00;9.00;23.40;38.10;;;;;;109945;1252;46671;-64
2023/05/01 08:33:56;;;;;;;;;9.50;8.00;23.50;38.10;;;;;;109992;1257;57354;-63
2023/05/01 08:36:23;;;;;;;;;10.50;9.50;23.60;38.20;;;;;;109999;1252;54074;-65
2023/05/01 08:38:50;;;;;;;;;11.00;10.00;23.60;38.20;;;;;;109962;1252;48772;-64
2023/05/01 08:41:22;;;;;;;;;11.50;9.50;23.60;38.10;;;;;;110006;1257;49706;-64
2023/05/01 08:43:49;;;;;;;;;10.00;8.00;23.70;38.30;;;;;;109974;1256;46892;-64
2023/05/01 08:46:32;;;;;;;;;13.00;12.00;23.80;38.70;;;;;;110011;1257;56392;-64
2023/05/01 08:48:59;;;;;;;;;11.00;10.00;23.80;38.10;;;;;;109984;1252;54771;-63
2023/05/01 08:51:27;;;;;;;;;11.00;10.00;23.90;38.10;;;;;;109958;1255;50019;-62
2023/05/01 08:53:56;;;;;;;;;11.00;9.00;23.90;38.00;;;;;;109948;1254;50001;-63
2023/05/01 08:56:24;;;;;;;;;10.00;9.00;24.00;38.10;;;;;;110006;1255;46768;-63
2023/05/01 08:58:51;;;;;;;;;10.00;9.00;24.00;38.00;;;;;;109995;1257;56218;-63
2023/05/01 09:01:19;;;;;;;;;10.00;9.00;24.10;38.20;;;;;;109959;1257;54274;-63
2023/05/01 09:03:48;;;;;;;;;10.00;9.00;24.10;37.50;;;;;;109992;1252;49111;-63
2023/05/01 09:06:16;;;;;;;;;10.00;9.00;24.20;38.20;;;;;;109965;1252;49312;-63
2023/05/01 09:08:43;;;;;;;;;11.00;10.00;24.20;38.00;;;;;;109961;1252;46261;-65
2023/05/01 09:11:11;;;;;;;;;10.00;9.00;24.20;37.90;;;;;;109942;1256;57304;-64
2023/05/01 09:13:38;;;;;;;;;11.00;10.00;24.30;38.20;;;;;;109961;1254;53549;-64
2023/05/01 09:16:06;;;;;;;;;10.50;9.50;24.40;38.10;;;;;;109794;1254;50190;-62
2023/05/01 09:18:33;;;;;;;;;10.67;9.67;24.40;38.10;;;;;;109938;1252;49192;-64
2023/05/01 09:21:02;;;;;;;;;10.00;9.00;24.40;38.00;;;;;;109956;1252;47426;-63
2023/05/01 09:23:29;;;;;;;;;11.25;9.00;24.50;38.00;;;;;;109988;1252;57904;-64
2023/05/01 09:25:56;;;;;;;;;9.00;8.00;24.50;38.00;;;;;;110011;1252;54802;-63
2023/05/01 09:28:46;;;;;;;;;9.67;9.00;24.60;38.00;;;;;;110049;1256;49601;-63
2023/05/01 09:31:21;;;;;;;;;11.33;9.00;24.60;37.90;;;;;;110027;1255;49451;-64
2023/05/01 09:33:54;;;;;;;;;9.00;8.00;24.60;37.90;;;;;;110018;1256;46575;-64
2023/05/01 09:36:23;;;;;;;;;9.50;8.50;24.70;37.90;;;;;;110133;1252;56479;-64
2023/05/01 09:38:50;;;;;;;;;11.00;10.00;24.80;37.90;;;;;;110046;1252;53655;-64
2023/05/01 09:41:19;;;;;;;;;10.00;9.00;24.90;38.20;;;;;;109962;1252;48702;-64
2023/05/01 09:43:51;;;;;;;;;11.00;10.00;24.90;37.90;;;;;;110020;1258;49446;-65
2023/05/01 09:46:19;;;;;;;;;11.00;10.00;24.90;37.90;;;;;;110007;1255;46679;-64
2023/05/01 09:48:54;;;;;;;;;10.50;9.50;24.90;38.10;;;;;;110015;1256;56544;-64
2023/05/01 09:51:27;;;;;;;;;10.00;9.00;25.00;37.80;;;;;;109988;1252;54706;-65
2023/05/01 09:53:58;;;;;;;;;9.00;8.00;25.00;37.80;;;;;;109979;1252;50771;-63
2023/05/01 09:56:26;;;;;;;;;12.00;10.00;25.10;37.80;;;;;;110336;1255;49296;-62
2023/05/01 09:58:55;;;;;;;;;8.67;7.67;25.10;37.80;;;;;;109982;1256;46240;-63
2023/05/01 10:01:51;;;;;;;;;9.00;8.00;25.20;37.80;;;;;;109997;1252;57011;-63
2023/05/01 10:04:34;;;;;;;;;10.00;9.00;25.20;37.70;;;;;;110008;1252;53350;-62
2023/05/01 10:07:14;;;;;;;;;9.00;8.00;25.30;37.80;;;;;;109977;1255;50219;-64
2023/05/01 10:09:41;;;;;;;;;10.00;9.00;25.30;37.70;;;;;;109971;1256;49883;-64
2023/05/01 10:12:08;;;;;;;;;9.00;8.00;25.40;37.70;;;;;;109997;1252;46956;-63
2023/05/01 10:14:52;;;;;;;;;10.50;9.50;25.40;37.70;;;;;;110029;1252;56474;-64
2023/05/01 10:17:20;;;;;;;;;10.00;9.00;25.40;37.70;;;;;;110029;1256;54828;-63
2023/05/01 10:19:48;;;;;;;;;10.00;9.00;25.50;37.70;;;;;;109952;1252;49023;-63
2023/05/01 10:22:15;;;;;;;;;11.00;10.00;25.50;37.60;;;;;;109963;1255;49824;-63
2023/05/01 10:24:44;;;;;;;;;9.50;8.50;25.50;37.60;;;;;;110033;1252;46817;-63
2023/05/01 10:27:12;;;;;;;;;9.00;8.00;25.50;37.80;;;;;;110004;1254;56290;-63
2023/05/01 10:29:41;;;;;;;;;11.00;8.00;25.60;37.60;;;;;;109991;1254;54458;-64
2023/05/01 10:32:08;;;;;;;;;10.00;9.00;25.60;37.60;;;;;;109984;1252;49191;-64
2023/05/01 10:34:41;;;;;;;;;11.00;10.00;25.60;37.60;;;;;;109953;1257;50098;-64
2023/05/01 10:37:12;;;;;;;;;9.00;8.00;25.60;37.60;;;;;;110041;1252;47167;-64
2023/05/01 10:39:39;;;;;;;;;11.50;10.50;25.70;37.60;;;;;;110061;1252;56802;-64
2023/05/01 10:42:15;;;;;;;;;11.00;10.00;25.70;37.50;;;;;;110111;1253;54406;-64
2023/05/01 10:44:43;;;;;;;;;9.50;8.75;25.80;37.50;;;;;;109969;1252;49420;-64
2023/05/01 10:47:26;;;;;;;;;10.50;9.50;25.80;37.70;;;;;;110050;1252;49299;-63
2023/05/01 10:50:07;;;;;;;;;11.00;9.00;25.80;37.50;;;;;;109986;1257;46722;-64
2023/05/01 10:53:08;;;;;;;;;9.00;8.00;25.80;37.50;;;;;;109996;1256;57443;-64
2023/05/01 10:55:36;;;;;;;;;11.00;10.00;25.90;37.50;;;;;;109995;1252;53807;-63
2023/05/01 10:58:04;;;;;;;;;12.50;9.50;25.90;37.50;;;;;;109972;1253;49310;-64
2023/05/01 11:00:32;;;;;;;;;9.00;8.00;25.90;37.90;;;;;;109978;1256;50001;-63
2023/05/01 11:03:21;;;;;;;;;11.50;8.00;25.90;37.60;;;;;;110037;1252;45930;-64
2023/05/01 11:06:03;;;;;;;;;9.00;8.00;25.90;37.60;;;;;;110026;1257;57550;-63
2023/05/01 11:08:30;;;;;;;;;10.00;9.00;26.00;37.50;;;;;;109994;1256;54334;-64
2023/05/01 11:10:57;;;;;;;;;9.67;8.67;26.00;38.00;;;;;;110061;1256;50254;-63
2023/05/01 11:13:58;;;;;;;;;9.00;8.00;26.00;37.40;;;;;;109985;1252;48900;-63
2023/05/01 11:16:45;;;;;;;;;9.00;8.00;26.00;37.60;;;;;;110376;1255;47147;-63
2023/05/01 11:19:21;;;;;;;;;10.00;8.50;26.00;37.40;;;;;;109978;1257;57064;-65
2023/05/01 11:21:49;;;;;;;;;10.00;9.00;26.00;37.30;;;;;;109988;1257;53465;-62
2023/05/01 11:24:17;;;;;;;;;9.00;8.00;26.10;37.60;;;;;;110037;1256;49127;-64
2023/05/01 11:26:44;;;;;;;;;12.00;11.00;26.00;37.30;;;;;;109987;1252;49383;-64
2023/05/01 11:29:11;;;;;;;;;11.00;10.00;26.10;37.60;;;;;;110041;1252;46781;-64
2023/05/01 11:31:38;;;;;;;;;11.00;9.00;26.10;37.30;;;;;;109997;1257;56945;-63
2023/05/01 11:34:05;;;;;;;;;10.00;9.00;26.10;37.30;;;;;;109974;1252;53406;-63
2023/05/01 11:36:49;;;;;;;;;9.33;8.67;26.10;37.30;;;;;;109970;1254;49031;-63
2023/05/01 11:39:17;;;;;;;;;11.00;9.00;26.10;37.40;;;;;;109925;1254;49253;-63
2023/05/01 11:41:45;;;;;;;;;10.00;9.00;26.10;37.50;;;;;;110022;1256;47722;-63
2023/05/01 11:44:15;;;;;;;;;9.00;8.00;26.10;37.30;;;;;;109897;1254;57279;-63
2023/05/01 11:46:42;;;;;;;;;10.00;9.00;26.10;37.30;;;;;;109810;1257;53803;-63
2023/05/01 11:49:10;;;;;;;;;11.00;10.00;26.20;37.60;;;;;;109860;1254;49557;-64
2023/05/01 11:51:37;;;;;;;;;10.00;9.00;26.10;37.30;;;;;;109955;1256;49098;-65
2023/05/01 11:54:09;;;;;;;;;11.00;10.00;26.20;37.90;;;;;;109972;1257;46239;-63
2023/05/01 11:56:37;;;;;;;;;9.00;8.00;26.10;37.20;;;;;;109797;1253;56752;-62
2023/05/01 11:59:11;;;;;;;;;12.50;9.50;26.10;37.30;;;;;;110049;1256;53671;-62
2023/05/01 12:01:40;;;;;;;;;14.00;13.00;26.20;37.60;;;;;;109944;1254;49614;-60
2023/05/01 12:04:07;;;;;;;;;16.00;14.00;26.20;37.30;;;;;;109950;1257;49329;-63
2023/05/01 12:06:44;;;;;;;;;16.67;14.00;26.10;37.60;;;;;;109772;1252;46215;-60
2023/05/01 12:09:16;;;;;;;;;17.00;14.50;26.10;37.70;;;;;;109988;1252;56527;-63
2023/05/01 12:11:44;;;;;;;;;17.00;13.00;26.00;37.60;;;;;;110090;1257;54032;-62
2023/05/01 12:14:11;;;;;;;;;20.00;15.00;26.00;38.00;;;;;;109925;1252;48919;-63
2023/05/01 12:16:39;;;;;;;;;14.33;13.00;25.90;38.10;;;;;;109888;1258;50336;-66
2023/05/01 12:19:07;;;;;;;;;15.50;12.50;25.90;37.80;;;;;;110092;1258;46270;-62
2023/05/01 12:21:38;;;;;;;;;18.00;14.00;25.90;38.60;;;;;;109934;1252;57045;-62
2023/05/01 12:24:14;;;;;;;;;14.00;14.00;25.80;38.70;;;;;;109919;1252;53760;-65
2023/05/01 12:26:43;;;;;;;;;15.00;13.00;25.80;38.60;;;;;;110213;1256;49538;-67
2023/05/01 12:29:10;;;;;;;;;18.00;16.00;25.80;38.60;;;;;;110040;1255;49291;-67
2023/05/01 12:31:47;;;;;;;;;17.00;15.00;25.80;38.60;;;;;;109985;1256;47144;-65
2023/05/01 12:34:14;;;;;;;;;17.33;15.00;25.70;38.70;;;;;;110229;1257;56274;-64